Time;durP1;ratioP1;P1;durP2;ratioP2;P2;SDS_P1;SDS_P2;PMS_P1;PMS_P2;Temp;Humidity;BMP_temperature;BMP_pressure;BME280_temperature;BME280_humidity;BME280_pressure;Samples;Min_cycle;Max_cycle;Signal;HPM_P1;HPM_P2
2023/07/04 00:00:34;;;;;;;10.10;3.85;;;14.00;99.90;;;;;;5053617;28;20037;-85
2023/07/04 00:03:01;;;;;;;13.18;4.35;;;14.00;99.90;;;;;;5053247;28;20032;-85
2023/07/04 00:05:26;;;;;;;7.40;3.78;;;14.00;99.90;;;;;;5054794;28;20405;-85
2023/07/04 00:07:52;;;;;;;8.25;3.28;;;14.00;99.90;;;;;;5053537;28;20033;-85
2023/07/04 00:10:20;;;;;;;8.73;3.42;;;14.00;99.90;;;;;;5053701;28;20040;-85
2023/07/04 00:12:46;;;;;;;12.15;4.13;;;13.90;99.90;;;;;;5053439;28;20146;-85
2023/07/04 00:15:13;;;;;;;9.90;4.07;;;14.00;99.90;;;;;;5038565;28;20044;-85
2023/07/04 00:17:39;;;;;;;14.57;4.88;;;13.90;99.90;;;;;;5049748;28;20074;-85
2023/07/04 00:20:06;;;;;;;10.40;4.25;;;13.90;99.90;;;;;;5036860;28;20033;-84
2023/07/04 00:22:33;;;;;;;10.05;4.00;;;13.90;99.90;;;;;;5054190;28;20521;-85
2023/07/04 00:24:59;;;;;;;8.80;3.47;;;13.90;99.90;;;;;;5060033;28;20498;-85
2023/07/04 00:27:25;;;;;;;10.88;4.03;;;13.90;99.90;;;;;;5053427;28;20249;-85
2023/07/04 00:29:50;;;;;;;9.73;4.13;;;13.90;99.90;;;;;;5060569;28;20405;-85
2023/07/04 00:32:16;;;;;;;11.77;4.15;;;13.80;99.90;;;;;;5055777;28;20039;-85
2023/07/04 00:34:45;;;;;;;8.23;4.32;;;13.80;99.90;;;;;;5053327;28;20402;-84
2023/07/04 00:37:11;;;;;;;10.88;3.78;;;13.80;99.90;;;;;;5027504;28;20124;-86
2023/07/04 00:39:37;;;;;;;10.18;3.88;;;13.80;99.90;;;;;;5053342;28;20091;-86
2023/07/04 00:42:07;;;;;;;9.18;4.40;;;13.70;99.90;;;;;;5050387;28;20036;-86
2023/07/04 00:44:37;;;;;;;9.82;4.10;;;13.80;99.90;;;;;;5030436;28;20036;-86
2023/07/04 00:47:21;;;;;;;8.30;4.18;;;13.70;99.90;;;;;;5036209;28;20036;-86
2023/07/04 00:49:57;;;;;;;9.45;4.50;;;13.70;99.90;;;;;;5035819;28;20037;-86
2023/07/04 00:52:27;;;;;;;12.10;4.63;;;13.70;99.90;;;;;;5067566;28;20559;-86
2023/07/04 00:54:57;;;;;;;9.07;4.18;;;13.70;99.90;;;;;;5053490;28;20502;-86
2023/07/04 00:57:25;;;;;;;8.48;4.22;;;13.60;99.90;;;;;;5036591;28;20041;-86
2023/07/04 00:59:58;;;;;;;9.90;4.10;;;13.60;99.90;;;;;;5014625;28;20509;-86
2023/07/04 01:02:27;;;;;;;10.02;5.20;;;13.60;99.90;;;;;;5031899;28;20080;-87
2023/07/04 01:04:54;;;;;;;7.60;4.05;;;13.60;99.90;;;;;;5032022;28;20511;-86
2023/07/04 01:07:35;;;;;;;11.68;4.60;;;13.50;99.90;;;;;;5037111;28;20036;-86
2023/07/04 01:10:13;;;;;;;6.07;3.92;;;13.50;99.90;;;;;;5050625;28;20040;-86
2023/07/04 01:12:39;;;;;;;9.13;3.97;;;13.50;99.90;;;;;;5040401;28;20390;-87
2023/07/04 01:15:06;;;;;;;10.00;4.30;;;13.40;99.90;;;;;;5047525;28;20513;-86
2023/07/04 01:17:32;;;;;;;9.48;4.25;;;13.50;99.90;;;;;;5041873;28;20079;-86
2023/07/04 01:19:59;;;;;;;8.75;4.65;;;13.50;99.90;;;;;;5042554;28;20466;-87
2023/07/04 01:22:41;;;;;;;10.88;4.65;;;13.50;99.90;;;;;;5049259;28;20048;-86
2023/07/04 01:25:14;;;;;;;10.02;4.25;;;13.50;99.90;;;;;;5031956;28;20033;-86
2023/07/04 01:27:42;;;;;;;11.10;4.63;;;13.40;99.90;;;;;;5052944;28;20048;-86
2023/07/04 01:30:08;;;;;;;11.40;4.85;;;13.40;99.90;;;;;;5051154;28;20548;-86
2023/07/04 01:32:35;;;;;;;8.73;4.20;;;13.40;99.90;;;;;;5051831;28;20040;-86
2023/07/04 01:35:02;;;;;;;11.75;4.53;;;13.40;99.90;;;;;;5038968;28;20028;-86
2023/07/04 01:37:31;;;;;;;9.52;4.60;;;13.30;99.90;;;;;;5040195;28;20041;-85
2023/07/04 01:39:58;;;;;;;9.82;4.43;;;13.30;99.90;;;;;;5040449;28;20068;-86
2023/07/04 01:42:31;;;;;;;10.23;4.20;;;13.20;99.90;;;;;;5051889;28;20051;-86
2023/07/04 01:45:01;;;;;;;7.85;4.70;;;13.20;99.90;;;;;;5051090;28;20525;-86
2023/07/04 01:47:33;;;;;;;9.48;4.05;;;13.20;99.90;;;;;;5032578;28;20506;-86
2023/07/04 01:49:59;;;;;;;6.53;4.35;;;13.20;99.90;;;;;;5050172;28;20040;-86
2023/07/04 01:52:26;;;;;;;10.60;4.88;;;13.10;99.90;;;;;;5048618;28;20179;-85
2023/07/04 01:54:51;;;;;;;8.73;4.28;;;13.20;99.90;;;;;;5052574;28;20047;-85
2023/07/04 01:57:17;;;;;;;8.18;4.43;;;13.20;99.90;;;;;;5054912;22;20048;-31
2023/07/04 01:59:43;;;;;;;11.55;4.63;;;13.20;99.90;;;;;;5071879;28;20052;-31
2023/07/04 02:02:08;;;;;;;10.77;4.70;;;13.20;99.90;;;;;;5071436;28;20443;-31
2023/07/04 02:04:34;;;;;;;10.75;4.68;;;13.20;99.90;;;;;;5052429;28;20029;-31
2023/07/04 02:07:00;;;;;;;8.40;4.53;;;13.10;99.90;;;;;;5051663;28;20045;-31
2023/07/04 02:09:25;;;;;;;10.68;4.60;;;13.20;99.90;;;;;;5051695;28;20036;-31
2023/07/04 02:11:51;;;;;;;14.30;4.30;;;13.10;99.90;;;;;;5051155;28;20036;-32
2023/07/04 02:14:18;;;;;;;7.88;3.70;;;13.10;99.90;;;;;;5045170;28;20536;-32
2023/07/04 02:16:44;;;;;;;8.00;4.20;;;13.10;99.90;;;;;;5045479;28;20142;-32
2023/07/04 02:19:10;;;;;;;10.07;4.53;;;13.10;99.90;;;;;;5049927;28;20033;-32
2023/07/04 02:21:36;;;;;;;9.15;4.80;;;13.10;99.90;;;;;;5049949;28;20482;-32
2023/07/04 02:24:02;;;;;;;9.10;4.93;;;13.10;99.90;;;;;;5049857;28;20048;-32
2023/07/04 02:26:29;;;;;;;8.30;4.15;;;13.10;99.90;;;;;;5050047;28;20124;-32
2023/07/04 02:28:55;;;;;;;9.45;4.43;;;13.00;99.90;;;;;;5028510;28;20062;-32
2023/07/04 02:31:23;;;;;;;9.23;4.40;;;13.00;99.90;;;;;;5048832;28;20135;-32
2023/07/04 02:33:50;;;;;;;11.82;4.97;;;13.00;99.90;;;;;;5032000;28;20083;-32
2023/07/04 02:36:15;;;;;;;10.85;4.85;;;13.00;99.90;;;;;;5047878;28;20037;-32
2023/07/04 02:38:42;;;;;;;9.48;4.80;;;13.00;99.90;;;;;;5044784;28;20032;-32
2023/07/04 02:41:09;;;;;;;9.23;4.60;;;13.00;99.90;;;;;;5042507;28;20048;-32
2023/07/04 02:43:35;;;;;;;10.30;4.05;;;12.90;99.90;;;;;;5050056;28;20048;-32
2023/07/04 02:46:03;;;;;;;5.88;4.53;;;12.90;99.90;;;;;;5055092;28;20071;-32
2023/07/04 02:48:30;;;;;;;10.02;5.30;;;13.00;99.90;;;;;;5032337;28;20560;-32
2023/07/04 02:50:56;;;;;;;8.70;4.50;;;12.90;99.90;;;;;;5054013;28;20025;-32
2023/07/04 02:53:23;;;;;;;13.00;5.68;;;12.90;99.90;;;;;;5029762;28;20050;-32
2023/07/04 02:55:50;;;;;;;7.72;4.78;;;12.90;99.90;;;;;;5029310;28;20057;-32
2023/07/04 02:58:16;;;;;;;10.70;5.18;;;12.90;99.90;;;;;;5029047;28;20045;-31
2023/07/04 03:00:44;;;;;;;8.32;4.95;;;12.90;99.90;;;;;;5030155;28;20038;-32
2023/07/04 03:03:10;;;;;;;6.53;4.60;;;12.90;99.90;;;;;;5027555;28;20538;-32
2023/07/04 03:05:36;;;;;;;11.50;4.63;;;12.90;99.90;;;;;;5030384;28;20324;-32
2023/07/04 03:08:03;;;;;;;7.50;5.18;;;12.90;99.90;;;;;;5026145;28;20087;-32
2023/07/04 03:10:30;;;;;;;8.93;4.78;;;12.90;99.90;;;;;;5029491;28;20491;-32
2023/07/04 03:12:55;;;;;;;11.93;5.28;;;12.90;99.90;;;;;;5029458;28;20401;-32
2023/07/04 03:15:21;;;;;;;9.77;4.85;;;12.90;99.90;;;;;;5029619;28;20041;-32
2023/07/04 03:17:48;;;;;;;16.15;5.60;;;12.90;99.90;;;;;;5029876;28;20041;-32
2023/07/04 03:20:14;;;;;;;9.32;5.53;;;12.90;99.90;;;;;;5028155;28;20410;-32
2023/07/04 03:22:41;;;;;;;8.77;4.65;;;12.90;99.90;;;;;;5029296;28;20054;-32
2023/07/04 03:25:07;;;;;;;12.07;5.68;;;12.90;99.90;;;;;;5029050;28;20517;-31
2023/07/04 03:27:36;;;;;;;13.55;5.90;;;12.90;99.90;;;;;;5029514;28;20052;-32
2023/07/04 03:30:03;;;;;;;10.02;5.40;;;12.90;99.90;;;;;;5029187;28;20051;-31
2023/07/04 03:32:29;;;;;;;13.57;5.47;;;12.90;99.90;;;;;;5029193;28;20069;-31
2023/07/04 03:35:00;;;;;;;10.25;6.00;;;12.90;99.90;;;;;;5029702;28;20069;-32
2023/07/04 03:37:27;;;;;;;9.43;5.35;;;12.90;99.90;;;;;;5024943;28;20047;-32
2023/07/04 03:39:53;;;;;;;12.73;5.97;;;12.90;99.90;;;;;;5029038;28;20460;-31
2023/07/04 03:42:18;;;;;;;9.80;6.00;;;12.90;99.90;;;;;;5029079;28;20036;-32
2023/07/04 03:44:44;;;;;;;10.02;5.45;;;12.90;99.90;;;;;;5029523;28;20033;-32
2023/07/04 03:47:10;;;;;;;10.40;5.80;;;12.90;99.90;;;;;;5029678;28;20087;-32
2023/07/04 03:49:36;;;;;;;11.63;6.30;;;12.90;99.90;;;;;;5026223;28;20038;-32
2023/07/04 03:52:01;;;;;;;13.85;6.15;;;13.00;99.90;;;;;;5029003;28;20117;-32
2023/07/04 03:54:27;;;;;;;9.98;5.72;;;13.00;99.90;;;;;;5033363;28;20052;-31
2023/07/04 03:56:53;;;;;;;10.95;5.90;;;13.00;99.90;;;;;;5015358;28;20116;-32
2023/07/04 03:59:18;;;;;;;13.18;6.18;;;13.00;99.90;;;;;;5033372;28;20037;-32
2023/07/04 04:01:45;;;;;;;14.88;6.15;;;13.00;99.90;;;;;;5032340;28;20072;-32
2023/07/04 04:04:11;;;;;;;8.43;5.68;;;13.10;99.90;;;;;;5032491;28;20078;-32
2023/07/04 04:06:37;;;;;;;12.13;6.05;;;13.10;99.90;;;;;;5032097;28;20033;-32
2023/07/04 04:09:02;;;;;;;10.30;5.97;;;13.10;99.90;;;;;;5033222;28;20037;-32
2023/07/04 04:11:28;;;;;;;8.00;5.07;;;13.10;99.90;;;;;;5032900;28;20038;-32
2023/07/04 04:13:54;;;;;;;12.15;5.57;;;13.10;99.90;;;;;;5032973;28;20079;-32
2023/07/04 04:16:21;;;;;;;20.00;6.25;;;13.20;99.90;;;;;;5033432;28;20128;-39
2023/07/04 04:18:47;;;;;;;10.18;5.32;;;13.10;99.90;;;;;;5032165;28;20037;-37
2023/07/04 04:21:12;;;;;;;12.75;6.05;;;13.20;99.90;;;;;;5032066;28;20040;-36
2023/07/04 04:23:38;;;;;;;10.63;6.00;;;13.20;99.90;;;;;;5031998;28;20482;-36
2023/07/04 04:26:04;;;;;;;13.40;5.70;;;13.30;99.90;;;;;;5032207;28;20072;-37
2023/07/04 04:28:30;;;;;;;9.63;5.47;;;13.30;99.90;;;;;;5033689;28;20041;-38
2023/07/04 04:30:55;;;;;;;10.80;5.50;;;13.30;99.90;;;;;;5032927;28;20034;-40
2023/07/04 04:33:21;;;;;;;11.48;5.18;;;13.30;99.90;;;;;;5029169;28;20095;-37
2023/07/04 04:35:47;;;;;;;14.18;5.50;;;13.40;99.90;;;;;;5032162;28;20033;-36
2023/07/04 04:38:12;;;;;;;10.40;5.10;;;13.40;99.90;;;;;;5014253;28;20048;-40
2023/07/04 04:40:38;;;;;;;11.10;4.93;;;13.40;99.90;;;;;;5030873;28;20037;-36
2023/07/04 04:43:04;;;;;;;14.43;6.00;;;13.40;99.90;;;;;;5030036;28;20415;-37
2023/07/04 04:45:30;;;;;;;7.43;4.20;;;13.50;99.90;;;;;;5011465;28;20045;-34
2023/07/04 04:48:18;;;;;;;12.30;4.78;;;13.50;99.90;;;;;;5024080;28;20502;-36
2023/07/04 04:50:46;;;;;;;9.93;4.60;;;13.60;99.90;;;;;;5028342;28;20101;-36
2023/07/04 04:53:14;;;;;;;8.60;4.05;;;13.50;99.90;;;;;;5023329;28;20044;-35
2023/07/04 04:55:40;;;;;;;12.30;4.43;;;13.60;99.90;;;;;;5029143;28;20037;-37
2023/07/04 04:58:06;;;;;;;6.60;3.90;;;13.60;99.90;;;;;;5028138;28;20080;-37
2023/07/04 05:00:32;;;;;;;7.38;4.35;;;13.70;99.90;;;;;;5029077;28;20230;-37
2023/07/04 05:02:57;;;;;;;5.80;4.10;;;13.70;99.90;;;;;;5029273;28;20446;-37
2023/07/04 05:05:23;;;;;;;10.00;4.47;;;13.70;99.90;;;;;;5032887;28;20041;-37
2023/07/04 05:07:49;;;;;;;8.45;4.00;;;13.70;99.90;;;;;;5034026;28;20047;-38
2023/07/04 05:10:15;;;;;;;8.10;4.30;;;13.80;99.90;;;;;;5031800;28;20059;-38
2023/07/04 05:12:44;;;;;;;11.30;3.70;;;13.80;99.90;;;;;;5030647;28;20470;-35
2023/07/04 05:15:11;;;;;;;8.45;4.32;;;13.80;99.90;;;;;;5028574;28;20252;-36
2023/07/04 05:17:37;;;;;;;7.03;3.65;;;13.90;99.90;;;;;;5022978;28;20155;-36
2023/07/04 05:20:05;;;;;;;7.40;3.75;;;13.80;99.90;;;;;;5029232;28;20179;-38
2023/07/04 05:22:30;;;;;;;6.88;2.92;;;13.90;99.90;;;;;;5020983;28;20053;-37
2023/07/04 05:24:57;;;;;;;7.22;3.40;;;13.90;99.90;;;;;;5031332;28;20041;-38
2023/07/04 05:27:22;;;;;;;5.78;3.38;;;13.90;99.90;;;;;;5026277;28;20045;-35
2023/07/04 05:29:48;;;;;;;7.20;3.10;;;13.90;99.90;;;;;;5031706;28;20399;-36
2023/07/04 05:32:14;;;;;;;6.55;3.28;;;13.90;99.90;;;;;;5033341;28;20033;-36
2023/07/04 05:34:39;;;;;;;6.97;3.15;;;14.00;99.90;;;;;;5034799;28;20047;-36
2023/07/04 05:37:05;;;;;;;10.48;3.30;;;14.00;99.90;;;;;;5027371;28;20033;-37
2023/07/04 05:39:31;;;;;;;5.75;3.20;;;14.10;99.90;;;;;;5027518;28;20081;-39
2023/07/04 05:41:57;;;;;;;6.38;3.00;;;14.10;99.90;;;;;;5028120;28;20034;-35
2023/07/04 05:44:22;;;;;;;5.97;3.30;;;14.20;99.90;;;;;;5035130;28;20041;-35
2023/07/04 05:46:48;;;;;;;4.97;3.15;;;14.20;99.90;;;;;;5030940;28;20041;-35
2023/07/04 05:49:14;;;;;;;7.53;3.10;;;14.20;99.90;;;;;;5026538;28;20040;-36
2023/07/04 05:51:39;;;;;;;7.28;3.42;;;14.30;99.90;;;;;;5030474;28;20033;-36
2023/07/04 05:54:08;;;;;;;4.10;2.88;;;14.40;99.90;;;;;;5037950;28;20080;-36
2023/07/04 05:56:34;;;;;;;5.35;2.75;;;14.50;99.90;;;;;;5030034;28;20065;-35
2023/07/04 05:59:01;;;;;;;5.25;2.83;;;14.50;99.90;;;;;;5027457;28;20033;-37
2023/07/04 06:01:43;;;;;;;6.63;2.97;;;14.60;99.90;;;;;;5029428;28;20037;-36
2023/07/04 06:04:11;;;;;;;5.68;3.00;;;14.60;99.90;;;;;;5028660;28;20045;-35
2023/07/04 06:06:41;;;;;;;4.43;2.85;;;14.70;99.90;;;;;;5023879;28;20522;-34
2023/07/04 06:09:11;;;;;;;7.70;3.22;;;14.70;99.90;;;;;;5029876;28;20037;-37
2023/07/04 06:11:43;;;;;;;6.90;2.90;;;14.80;99.90;;;;;;5029635;28;20033;-36
2023/07/04 06:14:09;;;;;;;7.40;2.60;;;14.80;99.90;;;;;;5014877;28;20041;-33
2023/07/04 06:16:35;;;;;;;6.05;2.53;;;14.90;99.90;;;;;;5027300;28;20037;-39
2023/07/04 06:19:02;;;;;;;6.57;2.70;;;15.00;99.90;;;;;;5020487;28;20535;-35
2023/07/04 06:21:28;;;;;;;3.90;2.60;;;15.00;99.90;;;;;;5033994;28;20049;-37
2023/07/04 06:23:57;;;;;;;6.85;2.60;;;15.00;99.90;;;;;;5022961;28;20084;-38
2023/07/04 06:26:27;;;;;;;6.40;2.85;;;15.10;99.90;;;;;;5031930;28;20069;-36
2023/07/04 06:28:54;;;;;;;6.45;2.95;;;15.10;99.90;;;;;;5025963;28;20514;-37
2023/07/04 06:31:20;;;;;;;7.53;2.60;;;15.20;99.90;;;;;;5028762;28;20056;-40
2023/07/04 06:33:46;;;;;;;7.15;2.28;;;15.20;99.90;;;;;;5030048;28;20033;-39
2023/07/04 06:36:14;;;;;;;4.32;2.17;;;15.20;99.90;;;;;;5030711;28;20029;-37
2023/07/04 06:38:39;;;;;;;6.90;2.47;;;15.20;99.90;;;;;;5027052;28;20048;-36
2023/07/04 06:41:11;;;;;;;6.88;2.55;;;15.30;99.90;;;;;;5027816;28;20103;-37
2023/07/04 06:43:39;;;;;;;7.60;2.45;;;15.40;99.90;;;;;;5029989;28;20068;-37
2023/07/04 06:46:05;;;;;;;4.57;2.50;;;15.70;99.90;;;;;;5012808;28;20395;-35
2023/07/04 06:48:30;;;;;;;8.40;2.97;;;15.80;99.90;;;;;;5028111;28;20075;-38
2023/07/04 06:51:02;;;;;;;6.43;2.50;;;16.00;99.90;;;;;;5026462;28;20034;-35
2023/07/04 06:53:28;;;;;;;4.82;2.25;;;16.00;99.90;;;;;;5025954;28;20037;-35
2023/07/04 06:56:13;;;;;;;5.95;2.40;;;16.10;99.90;;;;;;5011614;28;20038;-37
2023/07/04 06:58:45;;;;;;;6.78;1.90;;;16.20;99.90;;;;;;5027522;28;20052;-39
2023/07/04 07:01:11;;;;;;;3.90;2.30;;;16.30;99.90;;;;;;5029257;28;20537;-37
2023/07/04 07:03:39;;;;;;;5.03;2.50;;;16.40;99.90;;;;;;5029341;28;20065;-36
2023/07/04 07:06:07;;;;;;;4.60;1.98;;;16.40;99.90;;;;;;5029122;28;20804;-38
2023/07/04 07:08:36;;;;;;;4.07;2.08;;;16.40;99.90;;;;;;5028348;28;20092;-36
2023/07/04 07:11:04;;;;;;;4.65;2.00;;;16.40;99.90;;;;;;5029568;28;20041;-36
2023/07/04 07:13:30;;;;;;;6.43;2.03;;;16.40;99.90;;;;;;5031973;28;20038;-36
2023/07/04 07:16:10;;;;;;;5.45;1.88;;;16.40;99.90;;;;;;5030021;28;20099;-36
2023/07/04 07:18:38;;;;;;;5.22;1.92;;;16.50;99.90;;;;;;5028220;28;20124;-36
2023/07/04 07:21:05;;;;;;;6.00;2.22;;;16.60;99.90;;;;;;5029424;28;20598;-37
2023/07/04 07:23:32;;;;;;;6.50;2.17;;;16.80;99.90;;;;;;5028309;28;20402;-38
2023/07/04 07:26:00;;;;;;;5.22;1.98;;;17.00;99.90;;;;;;5029835;28;20049;-38
2023/07/04 07:28:27;;;;;;;3.40;2.40;;;17.20;99.90;;;;;;5032508;28;20045;-37
2023/07/04 07:31:12;;;;;;;5.13;1.80;;;17.30;99.90;;;;;;5031999;28;20033;-36
2023/07/04 07:33:40;;;;;;;7.00;2.40;;;17.40;99.90;;;;;;5032500;28;20522;-37
2023/07/04 07:36:37;;;;;;;5.30;1.90;;;17.50;99.90;;;;;;5033721;28;20104;-40
2023/07/04 07:39:04;;;;;;;5.07;2.47;;;17.50;99.90;;;;;;5032452;28;20069;-37
2023/07/04 07:41:45;;;;;;;6.85;2.10;;;17.60;99.90;;;;;;5032294;28;20096;-37
2023/07/04 07:44:11;;;;;;;4.18;1.90;;;17.70;99.90;;;;;;5032886;28;20037;-37
2023/07/04 07:46:37;;;;;;;7.35;2.22;;;17.90;99.90;;;;;;5032357;28;20083;-37
2023/07/04 07:49:03;;;;;;;3.95;1.83;;;18.10;99.90;;;;;;5032254;28;20061;-35
2023/07/04 07:51:29;;;;;;;6.30;2.15;;;18.30;99.90;;;;;;5032065;28;20124;-34
2023/07/04 07:53:56;;;;;;;7.60;1.80;;;18.60;99.90;;;;;;5032261;28;20391;-35
2023/07/04 07:56:30;;;;;;;6.22;2.08;;;18.70;99.90;;;;;;5032445;28;20487;-35
2023/07/04 07:58:56;;;;;;;5.40;2.20;;;18.80;99.90;;;;;;5024165;28;20735;-38
2023/07/04 08:01:31;;;;;;;6.50;2.40;;;18.90;99.90;;;;;;5031709;28;20048;-37
2023/07/04 08:03:58;;;;;;;7.32;1.90;;;19.00;99.90;;;;;;5032423;28;20069;-37
2023/07/04 08:06:25;;;;;;;3.85;1.88;;;19.00;99.90;;;;;;5033346;28;20052;-38
2023/07/04 08:08:52;;;;;;;3.30;1.88;;;18.80;99.90;;;;;;5032978;28;20519;-39
2023/07/04 08:11:18;;;;;;;6.40;1.85;;;18.70;99.90;;;;;;5031483;28;20041;-38
2023/07/04 08:13:45;;;;;;;6.70;2.28;;;18.40;99.90;;;;;;5030972;28;20033;-37
2023/07/04 08:16:11;;;;;;;4.55;1.92;;;18.30;99.90;;;;;;5039459;28;20042;-37
2023/07/04 08:18:36;;;;;;;4.45;1.88;;;18.20;99.90;;;;;;5032383;28;20033;-36
2023/07/04 08:21:03;;;;;;;6.80;2.30;;;18.10;99.90;;;;;;5031880;28;20045;-39
2023/07/04 08:23:30;;;;;;;6.85;2.53;;;18.10;99.90;;;;;;5032483;28;20049;-40
2023/07/04 08:25:56;;;;;;;7.72;2.08;;;18.30;99.90;;;;;;5018563;28;20208;-36
2023/07/04 08:28:22;;;;;;;6.78;2.42;;;18.40;99.90;;;;;;5031550;28;20049;-36
2023/07/04 08:30:49;;;;;;;9.20;2.38;;;18.60;99.90;;;;;;5031839;28;20514;-37
2023/07/04 08:33:17;;;;;;;8.25;2.40;;;18.70;99.90;;;;;;5032063;28;20029;-40
2023/07/04 08:35:59;;;;;;;5.65;2.60;;;18.90;99.90;;;;;;5031361;28;20459;-36
2023/07/04 08:38:25;;;;;;;6.20;2.55;;;19.10;99.90;;;;;;5031103;28;20089;-39
2023/07/04 08:40:51;;;;;;;7.45;2.80;;;19.20;99.90;;;;;;5031518;28;20037;-37
2023/07/04 08:43:41;;;;;;;6.68;2.10;;;19.50;99.90;;;;;;5013682;28;20051;-39
2023/07/04 08:46:09;;;;;;;12.57;2.85;;;19.50;99.90;;;;;;5013998;28;20048;-38
2023/07/04 08:48:37;;;;;;;8.63;3.05;;;19.50;99.90;;;;;;5031693;28;20037;-38
2023/07/04 08:51:04;;;;;;;7.50;2.95;;;19.40;99.90;;;;;;5030497;28;20352;-40
2023/07/04 08:53:30;;;;;;;6.75;2.78;;;19.20;99.90;;;;;;5030284;28;20142;-40
2023/07/04 08:56:05;;;;;;;8.40;3.05;;;19.10;99.90;;;;;;5033081;28;20037;-37
2023/07/04 08:58:38;;;;;;;7.78;2.58;;;18.90;99.90;;;;;;5027650;28;20120;-39
2023/07/04 09:01:14;;;;;;;6.78;2.45;;;18.50;99.90;;;;;;5031461;28;20037;-41
2023/07/04 09:04:02;;;;;;;9.35;2.80;;;18.50;99.90;;;;;;5030069;28;20046;-36
2023/07/04 09:06:36;;;;;;;4.93;2.58;;;18.40;99.90;;;;;;5035317;28;20056;-38
2023/07/04 09:09:23;;;;;;;6.90;2.42;;;18.30;99.90;;;;;;5032295;28;20083;-39
2023/07/04 09:11:49;;;;;;;11.38;2.97;;;18.20;99.90;;;;;;5038007;28;20437;-39
2023/07/04 09:14:15;;;;;;;7.22;2.38;;;17.90;99.90;;;;;;5031625;28;20509;-38
2023/07/04 09:16:44;;;;;;;7.60;2.70;;;17.80;99.90;;;;;;5031804;28;20034;-37
2023/07/04 09:19:14;;;;;;;9.57;2.30;;;17.70;99.90;;;;;;5013926;28;20041;-36
2023/07/04 09:21:42;;;;;;;6.72;2.55;;;17.50;99.90;;;;;;5030974;28;20052;-36
2023/07/04 09:24:08;;;;;;;7.68;2.60;;;17.30;99.90;;;;;;5031536;28;20038;-41
2023/07/04 09:26:44;;;;;;;9.63;2.67;;;17.00;99.90;;;;;;5031519;28;20030;-37
2023/07/04 09:29:12;;;;;;;8.02;2.55;;;17.00;99.90;;;;;;5025348;28;20034;-39
2023/07/04 09:31:42;;;;;;;10.02;2.72;;;16.90;99.90;;;;;;5030948;28;20046;-35
2023/07/04 09:34:31;;;;;;;9.13;2.63;;;17.20;99.90;;;;;;5030992;28;20048;-38
2023/07/04 09:37:00;;;;;;;10.15;2.67;;;17.50;99.90;;;;;;5021917;28;20041;-40
2023/07/04 09:39:45;;;;;;;8.10;2.63;;;18.10;99.90;;;;;;5030565;28;20045;-37
2023/07/04 09:42:12;;;;;;;9.38;2.25;;;18.70;99.90;;;;;;5030290;28;20033;-39
2023/07/04 09:44:38;;;;;;;6.80;2.50;;;18.80;99.90;;;;;;5031023;28;20037;-37
2023/07/04 09:47:07;;;;;;;5.22;2.15;;;19.00;99.90;;;;;;5030781;28;20123;-39
2023/07/04 09:49:36;;;;;;;7.90;2.30;;;19.20;99.90;;;;;;5028103;28;20041;-37
2023/07/04 09:52:04;;;;;;;9.73;3.08;;;19.40;99.90;;;;;;5029806;28;20399;-36
2023/07/04 09:54:36;;;;;;;6.97;2.33;;;19.90;99.90;;;;;;5029661;28;20073;-36
2023/07/04 09:57:28;;;;;;;5.78;1.85;;;20.40;99.90;;;;;;5015364;28;20509;-37
2023/07/04 10:00:12;;;;;;;4.22;2.17;;;20.80;99.90;;;;;;5026584;28;20046;-40
2023/07/04 10:02:38;;;;;;;6.88;1.83;;;20.90;99.90;;;;;;5030050;28;20051;-37
2023/07/04 10:05:05;;;;;;;6.00;1.80;;;21.40;99.90;;;;;;5031585;28;20471;-39
2023/07/04 10:07:31;;;;;;;4.97;2.13;;;21.30;99.90;;;;;;5031896;28;20498;-37
2023/07/04 10:10:05;;;;;;;4.25;1.88;;;21.10;99.90;;;;;;5024760;28;20041;-36
2023/07/04 10:12:41;;;;;;;4.80;2.22;;;21.20;99.90;;;;;;5026580;28;20071;-36
2023/07/04 10:15:07;;;;;;;7.40;2.30;;;21.30;99.90;;;;;;5029513;28;20124;-35
2023/07/04 10:17:35;;;;;;;7.07;2.58;;;21.50;99.90;;;;;;5030087;28;20410;-40
2023/07/04 10:20:13;;;;;;;7.15;2.63;;;21.60;99.90;;;;;;5029046;28;20045;-40
2023/07/04 10:22:42;;;;;;;6.10;2.50;;;21.60;99.90;;;;;;5030861;28;20506;-38
2023/07/04 10:25:16;;;;;;;8.30;2.58;;;21.80;99.90;;;;;;5029574;28;20038;-37
2023/07/04 10:27:46;;;;;;;6.72;2.53;;;21.70;99.90;;;;;;5029438;28;20463;-40
2023/07/04 10:30:16;;;;;;;8.73;3.17;;;21.30;99.90;;;;;;5029113;28;20081;-38
2023/07/04 10:32:48;;;;;;;9.10;2.88;;;20.60;99.90;;;;;;5029099;28;20034;-41
2023/07/04 10:35:20;;;;;;;5.22;2.25;;;20.20;99.90;;;;;;5027155;28;20157;-38
2023/07/04 10:37:58;;;;;;;5.97;2.40;;;19.90;99.90;;;;;;5030069;28;20405;-39
2023/07/04 10:40:25;;;;;;;6.13;2.55;;;19.80;99.90;;;;;;5029020;28;20049;-41
2023/07/04 10:43:03;;;;;;;8.15;2.50;;;19.80;99.90;;;;;;5029289;28;20036;-38
2023/07/04 10:45:31;;;;;;;6.65;2.40;;;19.80;99.90;;;;;;5028871;28;20044;-38
2023/07/04 10:48:04;;;;;;;8.05;2.58;;;19.80;99.90;;;;;;5034989;28;20114;-39
2023/07/04 10:50:36;;;;;;;8.68;2.40;;;19.80;99.90;;;;;;5030673;28;20441;-39
2023/07/04 10:53:02;;;;;;;8.00;2.60;;;19.70;99.90;;;;;;5033067;28;20037;-38
2023/07/04 10:55:34;;;;;;;9.50;2.65;;;19.50;99.90;;;;;;5028774;28;20033;-38
2023/07/04 10:58:08;;;;;;;7.82;2.83;;;19.40;99.90;;;;;;5026588;28;20042;-35
2023/07/04 11:00:50;;;;;;;10.40;2.88;;;19.30;99.90;;;;;;5033382;28;20080;-37
2023/07/04 11:03:27;;;;;;;7.05;2.30;;;19.30;99.90;;;;;;5030854;28;20112;-38
2023/07/04 11:05:57;;;;;;;6.72;2.35;;;19.30;99.90;;;;;;5012791;28;20041;-37
2023/07/04 11:08:28;;;;;;;6.75;2.45;;;19.30;99.90;;;;;;5029254;28;20120;-41
2023/07/04 11:11:08;;;;;;;9.27;2.55;;;19.30;99.90;;;;;;5025966;28;20045;-38
2023/07/04 11:13:34;;;;;;;7.15;2.38;;;19.20;99.90;;;;;;5028986;28;20041;-38
2023/07/04 11:16:04;;;;;;;7.22;2.45;;;19.10;99.90;;;;;;5028109;28;20072;-37
2023/07/04 11:18:36;;;;;;;6.18;2.40;;;19.10;99.90;;;;;;5029013;28;20042;-36
2023/07/04 11:21:14;;;;;;;7.03;3.00;;;19.00;99.90;;;;;;5028674;28;20034;-36
2023/07/04 11:23:45;;;;;;;9.20;2.42;;;19.00;99.90;;;;;;5010858;28;20041;-40
2023/07/04 11:26:11;;;;;;;4.63;2.30;;;19.30;99.90;;;;;;5028249;28;20087;-39
2023/07/04 11:28:37;;;;;;;7.63;3.03;;;19.60;99.90;;;;;;5028723;28;20049;-39
2023/07/04 11:31:19;;;;;;;7.20;2.80;;;20.20;99.90;;;;;;5011156;28;20133;-40
2023/07/04 11:33:55;;;;;;;11.25;3.10;;;20.30;99.90;;;;;;5029071;28;20047;-38
2023/07/04 11:36:42;;;;;;;9.57;2.92;;;20.40;99.90;;;;;;5027654;28;20050;-38
2023/07/04 11:39:30;;;;;;;7.93;3.13;;;20.40;99.90;;;;;;5023793;28;20092;-40
2023/07/04 11:41:58;;;;;;;6.68;2.60;;;20.60;99.90;;;;;;5028255;28;20034;-37
2023/07/04 11:44:31;;;;;;;9.20;2.90;;;20.50;99.90;;;;;;5029328;28;20048;-39
2023/07/04 11:47:05;;;;;;;9.70;2.75;;;20.30;99.90;;;;;;5022895;28;20041;-38
2023/07/04 11:49:32;;;;;;;7.38;2.80;;;20.20;99.90;;;;;;5036489;28;20560;-40
2023/07/04 11:52:25;;;;;;;9.55;3.13;;;20.10;99.90;;;;;;5028462;28;20033;-37
2023/07/04 11:55:10;;;;;;;9.75;2.50;;;20.10;99.90;;;;;;5028035;28;20038;-38
2023/07/04 11:58:07;;;;;;;10.82;2.95;;;20.00;99.90;;;;;;5027924;28;20045;-37
2023/07/04 12:00:38;;;;;;;10.23;3.30;;;19.90;99.90;;;;;;5025873;28;20088;-41
2023/07/04 12:03:16;;;;;;;7.80;2.88;;;19.80;99.90;;;;;;5028526;28;20487;-38
2023/07/04 12:05:44;;;;;;;7.53;2.83;;;19.70;99.90;;;;;;5029774;28;20049;-37
2023/07/04 12:08:17;;;;;;;10.27;2.95;;;19.70;99.90;;;;;;5031859;28;20478;-36
2023/07/04 12:10:43;;;;;;;8.80;2.85;;;19.90;99.90;;;;;;5028081;28;20048;-38
2023/07/04 12:13:09;;;;;;;7.50;2.47;;;20.60;99.90;;;;;;5028592;28;20034;-37
2023/07/04 12:15:37;;;;;;;6.78;2.95;;;21.50;99.90;;;;;;5032047;28;20121;-40
2023/07/04 12:18:21;;;;;;;6.85;2.42;;;22.30;99.90;;;;;;5032172;28;20108;-39
2023/07/04 12:20:47;;;;;;;5.93;2.22;;;23.00;99.90;;;;;;5032167;28;20475;-41
2023/07/04 12:23:15;;;;;;;5.38;1.95;;;23.60;99.90;;;;;;5032129;28;20037;-37
2023/07/04 12:25:44;;;;;;;7.85;2.20;;;23.20;96.30;;;;;;5031692;28;20124;-36
2023/07/04 12:28:11;;;;;;;6.03;2.40;;;22.90;94.80;;;;;;5032255;28;20124;-35
2023/07/04 12:30:41;;;;;;;6.20;2.05;;;22.40;93.70;;;;;;5029655;28;20077;-38
2023/07/04 12:33:31;;;;;;;10.27;2.42;;;22.10;91.10;;;;;;5031404;28;20100;-38
2023/07/04 12:36:06;;;;;;;6.40;2.35;;;21.80;91.20;;;;;;5031204;28;20510;-38
2023/07/04 12:38:36;;;;;;;5.20;2.00;;;21.50;90.40;;;;;;5031692;28;20045;-35
2023/07/04 12:41:02;;;;;;;6.47;2.28;;;21.40;91.70;;;;;;5031385;28;20033;-38
2023/07/04 12:43:32;;;;;;;5.30;2.25;;;21.40;91.50;;;;;;5031628;28;20041;-38
2023/07/04 12:46:28;;;;;;;5.85;2.67;;;21.30;90.40;;;;;;5023479;28;20037;-38
2023/07/04 12:48:55;;;;;;;4.82;2.28;;;21.30;90.00;;;;;;5010726;28;20510;-41
2023/07/04 12:51:24;;;;;;;8.00;2.40;;;21.30;90.70;;;;;;5030868;28;20076;-38
2023/07/04 12:53:51;;;;;;;7.03;1.85;;;21.00;90.00;;;;;;5030481;28;20037;-38
2023/07/04 12:56:17;;;;;;;7.20;2.47;;;21.00;90.50;;;;;;5035960;28;20117;-41